Loading ...
Sorry, an error occurred while loading the content.

It's windy at the top of Soldier

Expand Messages
  • Mark Westerdoll
    Whenever it is windy on the Camas Prairie I like to check out the top of Soldier Mountain at 9800 feet. Check this out! Quick 2-Day View Show 7
    Message 1 of 1 , Mar 29, 2009
    • 0 Attachment
      Whenever it is windy on the Camas Prairie I like to check out the top of Soldier Mountain at 9800 feet. Check this out!
         Quick 2-Day View
         Show 7 Days         For Information Regarding the Accuracy of This Data:  MesoWest Disclaimer

      Weather Conditions for:
      Soldier Mountain Peak 2, ID (SLDMT)

      Elev: 9530 ft; Latitude: 43.48455; Longitude: -114.90712

      Current time:Sun, 29 Mar 17:32 pm (MDT)
      Most Recent Observation:Sun, 29 Mar 5:00 pm (MDT)
      TimeTemp.DewRelativeWindWindWindQuality
      PointHumidityChillDirectionSpeedControl
      (MDT)(f)(f)(%)(f)(mph)
      29 Mar 5:00 pm8691-22NNW66G83OK
      29 Mar 4:00 pm7591-24NNW68G87OK
      29 Mar 3:00 pm7491-24NNW67G83OK
      29 Mar 2:00 pm6490-26NNW67G89OK
      29 Mar 1:00 pm6489-25NNW65G83OK
      29 Mar 12:00 pm6389-25NNW64G83OK
      29 Mar 11:00 am6389-25NNW66G90OK
      29 Mar 10:00 am6490-25NNW64G80OK
      29 Mar 9:00 am7591-22NNW54G76OK
      29 Mar 8:00 am9792-18NW47G71OK
      29 Mar 7:00 am121193-11NNW36G63OK
      29 Mar 6:00 am141394-9NW40G63OK
      29 Mar 5:00 am171695-4NW35G61OK
      29 Mar 4:00 am2120962WNW33G58OK
      29 Mar 3:00 am2121972W33G57OK
      29 Mar 2:00 am212197-1WNW46G66OK
      29 Mar 1:00 am2222971WNW43G68OK
      29 Mar 12:00 am2424985WNW37G63OK
      28 Mar 11:00 pm27269912W27G48OK
      28 Mar 10:00 pm26269811WSW25G40OK
      28 Mar 9:00 pm27269512W26G39OK
      28 Mar 8:00 pm27259411W31G49OK
      28 Mar 7:00 pm2625978W37G57OK
      28 Mar 6:00 pm2525986WNW39G58OK
      28 Mar 5:00 pm2625979NW33G61OK
      28 Mar 4:00 pm27259313NW20G46OK
      28 Mar 3:00 pm27248816NW13G29OK
      28 Mar 2:00 pm27248914NW18G41OK
      28 Mar 1:00 pm26239111NW25G54OK
      28 Mar 12:00 pm25239510NW22G51OK
      28 Mar 11:00 am2423949NW20G50OK
      28 Mar 10:00 am2422926NW32G68OK
      28 Mar 9:00 am2522907NW37G63OK
      28 Mar 8:00 am2420824NW41G68OK
      28 Mar 7:00 am2317783NW42G72OK
      28 Mar 6:00 am225471NW47G68OK
      28 Mar 5:00 am232403NW44G60OK
      28 Mar 4:00 am22-2341NW43G70OK
      28 Mar 3:00 am221403NW33G54OK
      28 Mar 2:00 am234443NNW41G59OK
      28 Mar 1:00 am201475-2NNW48G60OK
      28 Mar 12:00 am201476-3NNW51G64OK
      27 Mar 11:00 pm201579-3NNW51G68OK
      27 Mar 10:00 pm201581-3NNW51G67OK
      27 Mar 9:00 pm201581-2NNW48G59OK
      27 Mar 8:00 pm201475-1NNW42G54OK
      27 Mar 7:00 pm2213693NNW33G46OK
      27 Mar 6:00 pm2212674NNW30G45OK
      27 Mar 5:00 pm2212634NNW31G45OK
      27 Mar 4:00 pm2310587NNW25G41OK
      27 Mar 3:00 pm2310587NNW25G40OK
      27 Mar 2:00 pm2395610NNW16G27OK
      27 Mar 1:00 pm205505NNW18G28OK
      27 Mar 12:00 pm19-4363NNW20G37OK
    Your message has been successfully submitted and would be delivered to recipients shortly.